Filley, Nebraska
Current Conditions -  °F | °C
As of 12:15 AM on Sunday 23 Nov 2014 (Local Time) from KBIE Reporting Station
Overcast Overcast  
Wind Chill: 56°   Ceiling: 1800
Heat Index: 56°   Visibility: 10mi
Dew Point: 52°   Wind: 16mph
Humidity: 85%   Direction: 190°S
Pressure: 29.57"   Gusts: 20mph
Location:  40.29°N, 96.54°W
Report Text: KBIE 230615Z AUTO 19014G17KT 10SM OVC018 14/11 A2957 RMK AO2 T01350110
Loading
Personal Weather Stations






























Interactive Weather Map New forecast layout! Learn more

10-Day Weather Forecast

Advertisements
Track Severe Weather on mobile